Time;durP1;ratioP1;P1;durP2;ratioP2;P2;SDS_P1;SDS_P2;PMS_P1;PMS_P2;Temp;Humidity;BMP_temperature;BMP_pressure;BME280_temperature;BME280_humidity;BME280_pressure;Samples;Min_cycle;Max_cycle;Signal;HPM_P1;HPM_P2
2023/06/19 00:01:27;;;;;;;18.20;9.43;;;;;;;23.59;70.38;99656.31;5039016;28;20036;-73
2023/06/19 00:03:52;;;;;;;17.45;8.55;;;;;;;23.55;70.33;99657.50;5039027;28;20065;-73
2023/06/19 00:06:17;;;;;;;17.83;8.90;;;;;;;23.50;70.84;99660.50;5038818;28;20021;-73
2023/06/19 00:08:43;;;;;;;17.40;9.20;;;;;;;23.49;70.63;99660.63;5039084;28;20065;-73
2023/06/19 00:11:08;;;;;;;19.10;9.50;;;;;;;23.51;70.96;99661.38;5021149;28;20029;-73
2023/06/19 00:13:34;;;;;;;16.75;9.05;;;;;;;23.50;71.08;99667.72;5021291;28;20060;-73
2023/06/19 00:16:00;;;;;;;17.27;8.83;;;;;;;23.46;71.03;99661.69;5038644;28;20478;-73
2023/06/19 00:18:26;;;;;;;20.75;9.90;;;;;;;23.48;70.95;99651.69;5038516;28;20430;-72
2023/06/19 00:20:54;;;;;;;18.27;8.80;;;;;;;23.47;71.18;99659.88;5038516;28;20044;-72
2023/06/19 00:23:19;;;;;;;19.80;9.23;;;;;;;23.43;71.17;99686.06;5038445;28;20029;-72
2023/06/19 00:25:45;;;;;;;14.63;9.00;;;;;;;23.45;71.19;99700.25;5020840;28;20052;-73
2023/06/19 00:28:14;;;;;;;16.67;9.20;;;;;;;23.50;71.07;99714.25;5038675;28;20029;-73
2023/06/19 00:30:40;;;;;;;15.20;8.52;;;;;;;23.56;71.03;99725.56;5038480;28;20034;-73
2023/06/19 00:33:05;;;;;;;18.03;8.67;;;;;;;23.61;71.05;99740.41;5020482;28;20033;-73
2023/06/19 00:35:31;;;;;;;17.55;9.23;;;;;;;23.63;71.18;99756.44;5038361;28;20030;-72
2023/06/19 00:37:56;;;;;;;18.53;9.90;;;;;;;23.56;71.60;99768.56;5038302;28;20103;-73
2023/06/19 00:40:28;;;;;;;16.60;8.10;;;;;;;23.35;72.44;99769.03;5038395;28;20059;-73
2023/06/19 00:42:54;;;;;;;12.57;7.22;;;;;;;23.21;72.41;99769.91;5038395;28;20075;-73
2023/06/19 00:45:19;;;;;;;20.17;7.60;;;;;;;23.11;72.50;99758.00;5039115;28;20033;-73
2023/06/19 00:47:45;;;;;;;10.75;6.50;;;;;;;23.01;72.78;99749.69;5037903;28;20099;-73
2023/06/19 00:50:11;;;;;;;16.07;6.73;;;;;;;22.94;72.84;99733.13;5038228;28;20029;-73
2023/06/19 00:52:37;;;;;;;13.27;6.95;;;;;;;22.85;72.65;99721.16;5038160;28;20670;-72
2023/06/19 00:55:05;;;;;;;12.20;6.97;;;;;;;22.80;72.57;99707.19;5038003;28;20456;-73
2023/06/19 00:57:31;;;;;;;11.15;5.03;;;;;;;22.75;72.10;99687.78;5038028;28;20032;-73
2023/06/19 00:59:58;;;;;;;12.20;5.53;;;;;;;22.69;72.19;99674.78;5037936;28;20041;-73
2023/06/19 01:02:24;;;;;;;9.98;5.35;;;;;;;22.65;72.17;99656.19;5037959;28;20059;-73
2023/06/19 01:04:51;;;;;;;10.05;5.40;;;;;;;22.62;72.06;99632.25;5037983;28;20033;-73
2023/06/19 01:07:23;;;;;;;9.10;5.63;;;;;;;22.61;72.37;99646.63;5037440;28;20081;-72
2023/06/19 01:09:55;;;;;;;10.25;5.40;;;;;;;22.57;72.69;99666.56;5037901;28;20060;-72
2023/06/19 01:12:27;;;;;;;9.27;5.50;;;;;;;22.59;72.55;99626.22;5038031;28;20055;-73
2023/06/19 01:15:03;;;;;;;11.38;5.32;;;;;;;22.57;72.77;99599.50;5037613;28;20040;-73
2023/06/19 01:17:29;;;;;;;10.07;5.63;;;;;;;22.55;72.97;99555.81;5037153;28;20084;-72
2023/06/19 01:19:58;;;;;;;10.87;5.03;;;;;;;22.58;72.77;99543.97;5037960;28;20497;-73
2023/06/19 01:22:30;;;;;;;10.52;5.45;;;;;;;22.58;72.68;99523.41;5019852;28;20029;-73
2023/06/19 01:24:56;;;;;;;12.85;5.13;;;;;;;22.57;72.59;99520.81;5019806;28;20090;-73
2023/06/19 01:27:29;;;;;;;8.77;5.40;;;;;;;22.45;73.06;99509.91;5037264;28;20020;-72
2023/06/19 01:29:57;;;;;;;8.83;4.47;;;;;;;22.46;72.39;99508.06;5037852;28;20271;-72
2023/06/19 01:32:48;;;;;;;10.70;4.93;;;;;;;22.40;72.70;99492.38;5037294;28;20032;-72
2023/06/19 01:35:17;;;;;;;10.55;4.70;;;;;;;22.36;72.38;99489.91;5026397;28;20029;-72
2023/06/19 01:37:43;;;;;;;11.50;5.63;;;;;;;22.25;72.62;99495.09;5037616;28;20025;-72
2023/06/19 01:40:10;;;;;;;9.93;5.00;;;;;;;22.17;72.77;99492.06;5037387;28;20100;-72
2023/06/19 01:42:38;;;;;;;11.97;5.83;;;;;;;22.15;72.65;99477.91;5037687;28;20107;-72
2023/06/19 01:45:06;;;;;;;13.00;6.45;;;;;;;22.04;72.66;99465.19;5037414;28;20032;-72
2023/06/19 01:47:31;;;;;;;13.77;6.50;;;;;;;21.97;72.74;99471.91;5036723;28;20060;-72
2023/06/19 01:49:57;;;;;;;18.10;7.80;;;;;;;21.86;72.23;99477.97;5037132;28;20037;-71
2023/06/19 01:52:24;;;;;;;17.75;7.85;;;;;;;21.75;72.68;99487.53;5037390;28;20085;-72
2023/06/19 01:54:50;;;;;;;17.50;7.90;;;;;;;21.74;72.63;99479.59;5036876;28;20029;-72
2023/06/19 01:57:15;;;;;;;17.50;7.80;;;;;;;21.63;72.52;99464.19;5019232;28;20100;-72
2023/06/19 01:59:40;;;;;;;15.07;8.17;;;;;;;21.53;72.78;99453.19;5037005;28;20048;-72
2023/06/19 02:02:06;;;;;;;19.40;7.97;;;;;;;21.47;72.62;99456.25;5036840;28;20029;-71
2023/06/19 02:04:32;;;;;;;15.27;7.60;;;;;;;21.44;72.88;99443.91;5037104;28;20026;-71
2023/06/19 02:06:58;;;;;;;17.90;7.90;;;;;;;21.32;73.25;99450.00;5036850;28;20079;-72
2023/06/19 02:09:23;;;;;;;22.73;8.00;;;;;;;21.31;73.08;99442.94;5036928;28;20085;-72
2023/06/19 02:11:48;;;;;;;20.43;7.87;;;;;;;21.24;73.10;99439.78;5036853;28;20537;-72
2023/06/19 02:14:14;;;;;;;15.37;7.43;;;;;;;21.25;72.66;99429.94;5018969;28;20096;-72
2023/06/19 02:16:43;;;;;;;16.00;7.70;;;;;;;21.17;72.99;99417.00;5036703;28;20026;-72
2023/06/19 02:19:10;;;;;;;14.93;7.50;;;;;;;21.18;72.64;99424.97;5035648;28;20257;-72
2023/06/19 02:21:36;;;;;;;18.52;7.80;;;;;;;21.20;72.50;99432.88;5019084;28;20406;-72
2023/06/19 02:24:01;;;;;;;18.50;7.47;;;;;;;21.13;72.59;99436.91;5036695;28;20025;-72
2023/06/19 02:26:29;;;;;;;13.90;7.30;;;;;;;21.21;72.42;99450.66;5036869;28;20105;-72
2023/06/19 02:28:54;;;;;;;12.53;7.50;;;;;;;21.22;72.24;99453.25;5036609;28;20048;-72
2023/06/19 02:31:21;;;;;;;15.25;7.38;;;;;;;21.28;71.96;99445.81;5036820;28;20371;-72
2023/06/19 02:33:47;;;;;;;15.20;7.47;;;;;;;21.31;72.19;99445.59;5036336;28;20030;-72
2023/06/19 02:36:12;;;;;;;14.70;7.27;;;;;;;21.21;72.13;99451.53;5036649;28;20032;-72
2023/06/19 02:38:38;;;;;;;14.80;6.85;;;;;;;21.27;71.75;99447.63;5018799;28;20075;-72
2023/06/19 02:41:03;;;;;;;18.00;7.97;;;;;;;21.25;72.06;99454.03;5036516;28;20438;-72
2023/06/19 02:43:29;;;;;;;16.93;7.50;;;;;;;21.27;71.89;99460.16;5038610;28;20040;-72
2023/06/19 02:45:54;;;;;;;14.05;7.18;;;;;;;21.27;71.97;99461.03;5036556;28;20033;-72
2023/06/19 02:48:20;;;;;;;16.63;6.73;;;;;;;21.34;71.88;99469.50;5036327;28;20077;-72
2023/06/19 02:50:46;;;;;;;12.57;6.68;;;;;;;21.36;71.46;99470.31;5036549;28;20029;-72
2023/06/19 02:53:11;;;;;;;16.43;6.87;;;;;;;21.39;71.61;99467.44;5018988;28;20370;-72
2023/06/19 02:55:37;;;;;;;17.53;7.53;;;;;;;21.42;71.25;99469.91;5036337;28;20021;-72
2023/06/19 02:58:03;;;;;;;15.15;7.18;;;;;;;21.45;71.24;99469.72;5018579;28;20021;-72
2023/06/19 03:00:28;;;;;;;18.53;7.30;;;;;;;21.45;71.13;99475.09;5036403;28;20101;-72
2023/06/19 03:02:54;;;;;;;15.60;6.93;;;;;;;21.44;71.07;99461.78;5036212;28;20095;-72
2023/06/19 03:05:19;;;;;;;16.87;7.17;;;;;;;21.41;71.34;99457.47;5036486;28;20044;-72
2023/06/19 03:07:45;;;;;;;17.47;7.10;;;;;;;21.44;71.02;99467.13;5036236;28;20025;-72
2023/06/19 03:10:10;;;;;;;16.17;7.37;;;;;;;21.45;71.28;99464.38;5018385;28;20264;-72
2023/06/19 03:12:36;;;;;;;16.67;6.80;;;;;;;21.46;70.98;99460.72;5036283;28;20574;-72
2023/06/19 03:15:01;;;;;;;17.23;7.33;;;;;;;21.49;71.07;99462.38;5036235;28;20033;-72
2023/06/19 03:17:26;;;;;;;19.57;8.10;;;;;;;21.49;71.36;99471.25;5035815;28;20025;-72
2023/06/19 03:19:52;;;;;;;14.57;7.47;;;;;;;21.47;71.31;99461.59;5036339;28;20029;-72
2023/06/19 03:22:20;;;;;;;15.97;6.73;;;;;;;21.47;71.29;99456.25;5036242;28;20074;-72
2023/06/19 03:24:45;;;;;;;16.00;7.38;;;;;;;21.48;70.91;99457.97;5036115;28;20367;-72
2023/06/19 03:27:10;;;;;;;17.30;7.70;;;;;;;21.47;71.21;99457.09;5036226;28;20090;-72
2023/06/19 03:29:36;;;;;;;18.97;7.80;;;;;;;21.49;71.05;99452.50;5005488;28;20525;-72
2023/06/19 03:32:01;;;;;;;15.97;8.20;;;;;;;21.49;71.09;99460.53;5038831;28;20026;-72
2023/06/19 03:34:26;;;;;;;18.43;8.13;;;;;;;21.47;70.97;99466.97;5039897;28;20036;-72
2023/06/19 03:36:52;;;;;;;16.40;7.40;;;;;;;21.46;71.23;99455.38;5039276;28;20100;-72
2023/06/19 03:39:17;;;;;;;14.07;7.73;;;;;;;21.43;70.86;99457.38;5039826;28;20112;-72
2023/06/19 03:41:43;;;;;;;15.43;7.37;;;;;;;21.41;71.26;99457.47;5039770;28;20056;-72
2023/06/19 03:44:08;;;;;;;14.00;7.30;;;;;;;21.39;71.03;99453.16;5040469;28;20032;-72
2023/06/19 03:46:33;;;;;;;17.80;7.65;;;;;;;21.38;71.02;99449.66;5039445;28;20455;-71
2023/06/19 03:48:59;;;;;;;18.13;7.60;;;;;;;21.37;70.99;99455.97;5039203;28;20072;-71
2023/06/19 03:51:24;;;;;;;14.23;7.03;;;;;;;21.37;71.17;99448.78;5039513;28;20029;-72
2023/06/19 03:53:50;;;;;;;16.77;7.20;;;;;;;21.37;71.01;99440.75;5021603;28;20055;-72
2023/06/19 03:56:15;;;;;;;13.67;7.07;;;;;;;21.37;70.99;99448.78;5039491;28;20445;-72
2023/06/19 03:58:40;;;;;;;17.60;7.23;;;;;;;21.39;71.48;99442.44;5039146;28;20295;-72
2023/06/19 04:01:06;;;;;;;15.73;7.37;;;;;;;21.37;71.48;99451.44;5039007;28;20112;-72
2023/06/19 04:03:31;;;;;;;18.80;7.80;;;;;;;21.37;71.29;99447.94;5039173;28;20022;-72
2023/06/19 04:05:57;;;;;;;17.53;7.23;;;;;;;21.34;71.37;99456.13;5039004;28;20013;-71
2023/06/19 04:08:22;;;;;;;20.63;7.68;;;;;;;21.32;71.25;99463.41;5021265;28;20025;-72
2023/06/19 04:10:47;;;;;;;16.70;7.73;;;;;;;21.32;71.19;99466.94;5021344;28;20049;-71
2023/06/19 04:13:13;;;;;;;13.37;7.20;;;;;;;21.33;71.21;99470.47;5039169;28;20481;-72
2023/06/19 04:15:38;;;;;;;14.27;7.13;;;;;;;21.32;71.08;99469.63;5038941;28;20056;-72
2023/06/19 04:18:04;;;;;;;14.53;7.57;;;;;;;21.31;71.15;99449.16;5038685;28;20024;-71
2023/06/19 04:20:29;;;;;;;16.67;7.70;;;;;;;21.32;71.56;99458.03;5039079;28;20263;-71
2023/06/19 04:22:54;;;;;;;14.57;7.13;;;;;;;21.31;71.38;99472.38;5038924;28;20025;-71
2023/06/19 04:25:20;;;;;;;14.73;7.80;;;;;;;21.28;71.54;99462.75;5038761;28;20052;-71
2023/06/19 04:27:45;;;;;;;15.30;7.43;;;;;;;21.28;71.18;99472.56;5038858;28;20029;-72
2023/06/19 04:30:11;;;;;;;15.68;7.40;;;;;;;21.28;71.47;99485.97;5021028;28;20486;-71
2023/06/19 04:32:40;;;;;;;16.53;8.60;;;;;;;21.23;71.55;99492.47;5038437;28;20037;-71
2023/06/19 04:35:07;;;;;;;14.55;7.63;;;;;;;21.26;71.37;99485.19;5021163;28;20494;-71
2023/06/19 04:37:32;;;;;;;16.05;7.80;;;;;;;21.28;71.73;99467.22;5038488;28;20036;-72
2023/06/19 04:39:58;;;;;;;18.90;8.27;;;;;;;21.29;71.59;99479.66;5019757;28;20497;-71
2023/06/19 04:42:24;;;;;;;14.67;7.20;;;;;;;21.26;71.66;99474.50;5037624;28;20394;-72
2023/06/19 04:44:49;;;;;;;16.15;7.75;;;;;;;21.27;71.60;99473.53;5040849;28;20068;-71
2023/06/19 04:47:17;;;;;;;17.17;8.30;;;;;;;21.27;71.46;99492.28;5034606;28;20034;-72
2023/06/19 04:49:42;;;;;;;15.90;8.10;;;;;;;21.31;71.93;99493.81;5031004;28;20029;-70
2023/06/19 04:52:08;;;;;;;18.63;7.50;;;;;;;21.31;71.42;99483.97;5038327;28;20108;-70
2023/06/19 04:54:33;;;;;;;14.75;7.88;;;;;;;21.33;71.65;99486.53;5038303;28;20025;-70
2023/06/19 04:56:59;;;;;;;16.83;7.67;;;;;;;21.30;71.66;99494.75;5032742;28;20022;-70
2023/06/19 04:59:24;;;;;;;16.70;8.17;;;;;;;21.31;71.85;99494.69;5012685;28;20026;-70
2023/06/19 05:01:53;;;;;;;16.38;7.80;;;;;;;21.33;71.92;99487.41;5031275;28;20081;-71
2023/06/19 05:04:22;;;;;;;16.80;8.67;;;;;;;21.35;71.64;99501.56;5020073;28;20029;-71
2023/06/19 05:06:48;;;;;;;16.63;9.45;;;;;;;21.36;72.03;99499.75;5036668;28;20024;-71
2023/06/19 05:09:13;;;;;;;12.52;8.00;;;;;;;21.34;71.69;99493.63;5038181;28;20025;-71
2023/06/19 05:11:39;;;;;;;19.63;8.77;;;;;;;21.35;71.76;99490.00;5037605;28;20021;-71
2023/06/19 05:14:04;;;;;;;14.33;8.53;;;;;;;21.40;71.91;99489.69;5038074;28;20029;-71
2023/06/19 05:16:29;;;;;;;16.17;8.15;;;;;;;21.40;71.73;99490.59;5020135;28;20545;-71
2023/06/19 05:18:55;;;;;;;14.13;7.53;;;;;;;21.42;71.53;99493.16;5037332;28;20033;-71
2023/06/19 05:21:20;;;;;;;12.60;7.60;;;;;;;21.39;72.00;99504.94;5037743;28;20022;-71
2023/06/19 05:23:50;;;;;;;15.33;7.60;;;;;;;21.40;71.86;99505.78;5037716;28;20025;-71
2023/06/19 05:26:18;;;;;;;16.08;7.60;;;;;;;21.40;71.75;99509.34;5019688;28;20013;-71
2023/06/19 05:28:44;;;;;;;14.07;7.90;;;;;;;21.40;71.96;99517.38;5037708;28;20025;-71
2023/06/19 05:31:09;;;;;;;14.07;7.60;;;;;;;21.41;71.77;99510.16;5037389;28;20025;-71
2023/06/19 05:33:35;;;;;;;15.10;8.03;;;;;;;21.47;71.83;99504.47;5036799;28;20029;-71
2023/06/19 05:36:01;;;;;;;16.37;8.07;;;;;;;21.51;71.65;99496.13;5028143;28;20061;-71
2023/06/19 05:38:30;;;;;;;13.90;7.82;;;;;;;21.56;71.41;99495.84;5019635;28;20088;-71
2023/06/19 05:40:55;;;;;;;14.90;7.72;;;;;;;21.59;71.49;99487.59;5037387;28;20104;-71
2023/06/19 05:43:21;;;;;;;13.87;8.17;;;;;;;21.58;71.93;99490.38;5038359;28;20059;-71
2023/06/19 05:45:47;;;;;;;14.50;8.48;;;;;;;21.53;72.26;99512.13;5037990;28;20021;-71
2023/06/19 05:48:12;;;;;;;16.37;8.20;;;;;;;21.52;72.11;99526.47;5037105;28;20049;-71
2023/06/19 05:50:38;;;;;;;16.53;8.30;;;;;;;21.54;72.32;99532.59;5037175;28;20025;-71
2023/06/19 05:53:03;;;;;;;15.20;8.33;;;;;;;21.57;72.25;99537.75;5037280;28;20264;-71
2023/06/19 05:55:28;;;;;;;13.67;8.10;;;;;;;21.60;72.47;99537.56;5036951;28;20025;-71
2023/06/19 05:57:55;;;;;;;15.33;8.23;;;;;;;21.64;72.02;99540.91;5037153;28;20022;-70
2023/06/19 06:00:20;;;;;;;14.75;8.35;;;;;;;21.65;72.21;99553.38;5036708;28;20036;-71
2023/06/19 06:02:46;;;;;;;20.23;9.53;;;;;;;21.65;72.31;99551.56;5037055;28;20485;-70
2023/06/19 06:05:12;;;;;;;16.02;8.55;;;;;;;21.61;72.40;99559.88;5036771;28;20045;-71
2023/06/19 06:07:37;;;;;;;15.47;9.47;;;;;;;21.56;72.83;99557.47;5037007;28;20027;-71
2023/06/19 06:10:03;;;;;;;13.20;8.53;;;;;;;21.53;72.99;99560.31;5036862;28;20445;-71
2023/06/19 06:12:28;;;;;;;14.40;8.57;;;;;;;21.56;72.52;99568.19;5019131;28;20028;-71
2023/06/19 06:14:54;;;;;;;16.57;8.90;;;;;;;21.56;72.88;99568.19;5036839;28;20079;-71
2023/06/19 06:17:19;;;;;;;16.93;8.60;;;;;;;21.56;73.20;99564.63;5036342;28;20033;-71
2023/06/19 06:19:44;;;;;;;14.57;9.30;;;;;;;21.60;72.93;99563.50;5036669;28;20030;-71
2023/06/19 06:22:10;;;;;;;17.43;9.13;;;;;;;21.63;73.04;99565.97;5036838;28;20034;-71
2023/06/19 06:24:35;;;;;;;15.50;9.13;;;;;;;21.67;73.03;99553.28;5036650;28;20030;-71
2023/06/19 06:27:00;;;;;;;15.27;8.40;;;;;;;21.65;72.89;99561.44;5036798;28;20096;-71
2023/06/19 06:29:26;;;;;;;15.63;9.37;;;;;;;21.68;73.20;99558.56;5036553;28;20028;-71
2023/06/19 06:31:52;;;;;;;19.83;9.98;;;;;;;21.70;73.31;99547.72;5036598;28;20025;-71
2023/06/19 06:34:19;;;;;;;20.10;9.80;;;;;;;21.69;72.95;99536.16;5036851;28;20102;-70
2023/06/19 06:36:44;;;;;;;15.75;9.65;;;;;;;21.72;73.05;99540.47;5036474;28;20113;-70
2023/06/19 06:39:10;;;;;;;19.00;10.23;;;;;;;21.75;72.99;99545.66;5018718;28;20025;-70
2023/06/19 06:41:36;;;;;;;17.42;9.43;;;;;;;21.78;72.88;99554.34;5026153;28;20383;-70
2023/06/19 06:44:02;;;;;;;17.45;9.38;;;;;;;21.80;72.76;99573.00;5036402;28;20055;-70
2023/06/19 06:46:27;;;;;;;16.20;9.65;;;;;;;21.86;72.78;99586.03;5035589;28;20440;-70
2023/06/19 06:48:53;;;;;;;16.97;10.43;;;;;;;21.90;72.98;99597.41;5036224;28;20077;-70
2023/06/19 06:51:18;;;;;;;17.23;10.40;;;;;;;21.89;72.79;99606.41;5036596;28;20037;-70
2023/06/19 06:53:44;;;;;;;19.90;11.10;;;;;;;21.86;73.05;99617.34;5036372;28;20056;-70
2023/06/19 06:56:10;;;;;;;19.40;11.13;;;;;;;21.82;73.69;99631.84;5036204;28;20032;-70
2023/06/19 06:58:36;;;;;;;17.37;10.13;;;;;;;21.80;73.36;99640.84;5018599;28;20025;-70
2023/06/19 07:01:02;;;;;;;17.35;11.85;;;;;;;21.77;74.34;99661.63;5036195;28;20060;-70
2023/06/19 07:03:29;;;;;;;21.17;11.30;;;;;;;21.72;74.15;99694.06;5036151;28;20026;-70
2023/06/19 07:05:55;;;;;;;18.30;11.25;;;;;;;21.70;74.25;99693.28;5037616;28;20466;-70
2023/06/19 07:08:20;;;;;;;18.50;11.77;;;;;;;21.68;74.84;99699.69;5022330;28;20036;-70
2023/06/19 07:10:46;;;;;;;21.27;12.40;;;;;;;21.66;74.52;99718.56;5040227;28;20079;-70
2023/06/19 07:13:11;;;;;;;25.73;12.80;;;;;;;21.65;74.94;99730.22;5040156;28;20467;-69
2023/06/19 07:15:37;;;;;;;20.57;12.33;;;;;;;21.65;75.20;99738.25;5039980;28;20076;-69
2023/06/19 07:18:02;;;;;;;20.63;12.60;;;;;;;21.66;75.14;99748.03;5039983;28;20098;-69
2023/06/19 07:20:27;;;;;;;19.58;11.90;;;;;;;21.68;75.01;99754.16;5040145;28;20029;-70
2023/06/19 07:22:54;;;;;;;18.27;12.40;;;;;;;21.68;75.16;99754.16;5039851;28;20052;-69
2023/06/19 07:25:19;;;;;;;19.15;12.48;;;;;;;21.71;75.68;99753.97;5022076;28;20116;-70
2023/06/19 07:27:45;;;;;;;19.63;12.60;;;;;;;21.72;75.38;99750.34;5022092;28;20037;-70
2023/06/19 07:30:11;;;;;;;20.20;12.20;;;;;;;21.75;75.33;99750.16;5039892;28;20037;-70
2023/06/19 07:32:37;;;;;;;18.15;12.60;;;;;;;21.81;75.34;99748.94;5039504;28;20021;-70
2023/06/19 07:35:03;;;;;;;21.95;12.48;;;;;;;21.82;75.54;99745.28;5039796;28;20029;-70
2023/06/19 07:37:28;;;;;;;24.50;12.70;;;;;;;21.84;75.44;99737.19;5039503;28;20039;-70
2023/06/19 07:39:54;;;;;;;20.60;13.00;;;;;;;21.88;75.64;99734.19;5039737;28;20036;-70
2023/06/19 07:42:19;;;;;;;26.90;14.03;;;;;;;21.93;75.64;99736.63;5039684;28;20035;-70
2023/06/19 07:44:45;;;;;;;20.30;12.57;;;;;;;22.00;75.53;99735.28;5041266;28;20033;-70
2023/06/19 07:47:11;;;;;;;21.08;12.88;;;;;;;22.08;75.29;99722.28;5038851;28;20045;-70
2023/06/19 07:49:37;;;;;;;23.50;13.20;;;;;;;22.22;74.98;99720.56;5021844;28;20040;-70
2023/06/19 07:52:04;;;;;;;20.57;13.10;;;;;;;22.42;74.92;99721.16;5039375;28;20053;-70
2023/06/19 07:54:29;;;;;;;20.52;12.93;;;;;;;22.63;74.80;99730.56;5039396;28;20021;-70
2023/06/19 07:56:55;;;;;;;19.73;12.53;;;;;;;22.83;74.67;99725.75;5039190;28;20030;-70
2023/06/19 07:59:21;;;;;;;18.52;10.88;;;;;;;23.01;73.78;99728.19;5021582;28;20026;-70
2023/06/19 08:01:46;;;;;;;17.00;11.77;;;;;;;23.11;73.34;99723.97;5038950;28;20047;-70
2023/06/19 08:04:12;;;;;;;20.03;12.00;;;;;;;23.19;73.09;99735.06;5039383;28;20021;-70
2023/06/19 08:06:37;;;;;;;17.60;10.90;;;;;;;23.36;72.78;99743.88;5039180;28;20044;-70
2023/06/19 08:09:03;;;;;;;22.00;11.37;;;;;;;23.57;72.58;99762.22;5039318;28;20029;-70
2023/06/19 08:11:29;;;;;;;20.73;11.57;;;;;;;23.82;72.76;99769.50;5038996;28;20030;-70
2023/06/19 08:13:54;;;;;;;20.63;10.97;;;;;;;23.96;71.57;99765.88;5039242;28;20374;-70
2023/06/19 08:16:20;;;;;;;24.67;12.45;;;;;;;23.94;71.90;99795.56;5020821;28;20022;-70
2023/06/19 08:18:46;;;;;;;24.40;12.30;;;;;;;23.75;71.96;99808.53;5037567;28;20026;-70
2023/06/19 08:21:12;;;;;;;21.20;12.02;;;;;;;23.60;72.08;99815.78;5038947;28;20025;-70
2023/06/19 08:23:39;;;;;;;21.77;11.25;;;;;;;23.44;72.41;99805.19;5038953;28;20044;-71
2023/06/19 08:26:05;;;;;;;21.43;11.33;;;;;;;23.35;72.62;99807.47;5038761;28;20086;-71
2023/06/19 08:28:34;;;;;;;23.25;11.27;;;;;;;23.32;72.09;99799.63;5038849;28;20029;-71
2023/06/19 08:30:59;;;;;;;25.20;11.95;;;;;;;23.32;72.38;99785.34;5038617;28;20029;-70
2023/06/19 08:33:25;;;;;;;18.37;10.50;;;;;;;23.37;72.28;99761.72;5038558;28;20029;-71
2023/06/19 08:35:50;;;;;;;21.50;10.68;;;;;;;23.44;71.79;99741.53;5038485;28;20025;-70
2023/06/19 08:38:16;;;;;;;15.63;9.20;;;;;;;23.49;71.08;99715.22;5038652;28;20021;-71
2023/06/19 08:40:42;;;;;;;18.73;9.53;;;;;;;23.51;71.21;99720.50;5038726;28;20017;-71
2023/06/19 08:43:08;;;;;;;17.27;10.57;;;;;;;23.54;71.11;99725.66;5038637;28;20085;-70
2023/06/19 08:45:33;;;;;;;15.90;9.90;;;;;;;23.51;71.07;99697.19;5022502;28;20486;-71
2023/06/19 08:48:02;;;;;;;21.43;10.87;;;;;;;23.56;71.38;99661.06;5037806;28;20037;-71
2023/06/19 08:50:27;;;;;;;18.43;11.00;;;;;;;23.55;71.07;99652.13;5038298;28;20363;-71
2023/06/19 08:52:55;;;;;;;15.77;10.95;;;;;;;23.58;70.99;99651.06;5038342;28;20056;-71
2023/06/19 08:55:20;;;;;;;18.33;11.00;;;;;;;23.59;70.90;99660.84;5038170;28;20029;-71
2023/06/19 08:57:48;;;;;;;21.88;11.88;;;;;;;23.54;70.81;99671.06;5020419;28;20486;-71
2023/06/19 09:00:26;;;;;;;17.03;11.07;;;;;;;23.41;70.88;99655.75;5038149;28;20387;-71
2023/06/19 09:02:57;;;;;;;22.95;10.93;;;;;;;23.39;70.89;99646.06;5020041;28;20084;-71
2023/06/19 09:05:23;;;;;;;21.02;10.52;;;;;;;23.35;70.91;99638.22;5038278;28;20071;-71
2023/06/19 09:07:57;;;;;;;20.13;10.70;;;;;;;23.34;71.01;99635.66;5038085;28;20025;-71
2023/06/19 09:10:26;;;;;;;19.20;10.95;;;;;;;23.35;71.28;99637.38;5038201;28;20052;-71
2023/06/19 09:12:59;;;;;;;21.85;11.40;;;;;;;23.25;71.42;99641.59;5037821;28;20033;-71
2023/06/19 09:15:28;;;;;;;21.20;11.45;;;;;;;23.24;71.75;99627.31;5037877;28;20108;-71
2023/06/19 09:18:07;;;;;;;22.33;11.40;;;;;;;23.17;71.80;99616.13;5019750;28;20104;-70
2023/06/19 09:20:36;;;;;;;20.17;11.27;;;;;;;23.20;71.84;99610.53;5038163;28;20026;-71
2023/06/19 09:23:01;;;;;;;20.95;11.27;;;;;;;23.16;72.12;99613.56;5037637;28;20096;-71
2023/06/19 09:25:27;;;;;;;19.20;11.43;;;;;;;23.13;72.22;99609.25;5019914;28;20045;-71
2023/06/19 09:27:56;;;;;;;23.10;11.60;;;;;;;23.15;72.34;99593.88;5037607;28;20492;-71
2023/06/19 09:30:22;;;;;;;20.65;11.50;;;;;;;23.21;72.51;99598.84;5019619;28;20018;-71
2023/06/19 09:32:47;;;;;;;22.77;11.50;;;;;;;23.21;73.02;99612.28;5037409;28;20104;-71
2023/06/19 09:35:13;;;;;;;16.83;10.70;;;;;;;23.28;72.37;99623.50;5037617;28;20025;-71
2023/06/19 09:37:42;;;;;;;16.87;10.30;;;;;;;23.34;72.58;99632.97;5037266;28;20034;-71
2023/06/19 09:40:11;;;;;;;15.68;10.43;;;;;;;23.36;72.03;99625.66;5037497;28;20029;-71
2023/06/19 09:42:43;;;;;;;19.90;11.17;;;;;;;23.35;71.94;99621.25;5037523;28;20030;-71
2023/06/19 09:45:11;;;;;;;17.67;10.15;;;;;;;23.41;71.60;99623.53;5037963;28;20434;-71
2023/06/19 09:47:44;;;;;;;20.38;10.20;;;;;;;23.41;71.69;99607.41;5019180;28;20091;-71
2023/06/19 09:50:12;;;;;;;17.08;10.30;;;;;;;23.51;71.65;99605.81;5037505;28;20025;-71
2023/06/19 09:52:38;;;;;;;17.38;10.10;;;;;;;23.64;71.45;99608.53;5037324;28;20190;-71
2023/06/19 09:55:06;;;;;;;17.37;10.40;;;;;;;23.83;70.94;99611.75;5019839;28;20033;-71
2023/06/19 09:57:33;;;;;;;18.60;10.13;;;;;;;23.92;71.03;99616.47;5036989;28;20017;-71
2023/06/19 10:00:09;;;;;;;14.45;10.40;;;;;;;24.00;70.57;99616.81;5036672;28;20440;-71
2023/06/19 10:02:35;;;;;;;18.05;10.38;;;;;;;24.10;70.54;99602.72;5037052;28;20029;-71
2023/06/19 10:05:01;;;;;;;17.60;9.40;;;;;;;24.10;70.07;99597.34;5036756;28;20095;-71
2023/06/19 10:07:33;;;;;;;17.93;10.13;;;;;;;24.10;70.52;99587.41;5019101;28;20025;-71
2023/06/19 10:10:00;;;;;;;15.15;9.40;;;;;;;24.06;70.26;99581.41;5019114;28;20033;-71
2023/06/19 10:12:45;;;;;;;17.23;9.73;;;;;;;23.95;69.80;99562.47;5019012;28;20029;-71
2023/06/19 10:15:26;;;;;;;16.33;9.50;;;;;;;23.93;70.04;99545.56;5006530;28;20022;-71
2023/06/19 10:17:51;;;;;;;14.18;8.88;;;;;;;23.88;70.31;99537.00;5036360;28;20736;-70
2023/06/19 10:20:37;;;;;;;14.27;9.20;;;;;;;23.88;69.82;99553.13;5019068;28;20045;-70
2023/06/19 10:23:07;;;;;;;18.38;9.10;;;;;;;23.93;69.76;99561.72;5036665;28;20048;-71
2023/06/19 10:25:35;;;;;;;16.02;9.20;;;;;;;23.97;69.96;99565.91;5036725;28;20034;-71
2023/06/19 10:28:01;;;;;;;14.25;8.93;;;;;;;23.99;69.25;99580.09;5036783;28;20526;-71
2023/06/19 10:30:27;;;;;;;16.38;8.90;;;;;;;23.91;68.65;99583.34;5036578;28;20112;-71
2023/06/19 10:32:53;;;;;;;16.43;9.30;;;;;;;23.89;69.10;99581.72;5036677;28;20056;-71
2023/06/19 10:35:21;;;;;;;14.40;8.18;;;;;;;23.90;69.06;99580.75;5036679;28;20009;-71
2023/06/19 10:37:48;;;;;;;13.05;9.13;;;;;;;23.84;68.81;99568.59;5036297;28;20029;-71
2023/06/19 10:40:14;;;;;;;14.50;8.23;;;;;;;23.89;68.45;99566.47;5018911;28;20399;-70
2023/06/19 10:42:40;;;;;;;15.20;7.67;;;;;;;23.92;68.38;99568.94;5041019;28;20037;-70
2023/06/19 10:45:15;;;;;;;15.25;7.95;;;;;;;23.91;67.72;99577.09;5042979;28;20029;-71
2023/06/19 10:47:41;;;;;;;11.93;7.93;;;;;;;24.01;67.70;99569.22;5039019;28;20048;-71
2023/06/19 10:50:16;;;;;;;11.68;8.20;;;;;;;24.10;67.37;99565.91;5022807;28;20025;-71
2023/06/19 10:52:43;;;;;;;10.95;6.93;;;;;;;24.18;67.36;99570.72;5040710;28;20026;-71
2023/06/19 10:55:09;;;;;;;12.25;7.15;;;;;;;24.29;66.63;99559.19;5040750;28;20033;-71
2023/06/19 10:57:35;;;;;;;14.60;7.60;;;;;;;24.36;66.28;99550.56;5040468;28;20074;-71
2023/06/19 11:00:00;;;;;;;13.55;7.30;;;;;;;24.48;66.09;99529.13;5040323;28;20029;-71
2023/06/19 11:02:26;;;;;;;11.97;7.13;;;;;;;24.50;65.78;99524.47;5040378;28;20113;-71
2023/06/19 11:04:55;;;;;;;11.20;7.23;;;;;;;24.55;65.98;99522.31;5040259;28;20021;-71
2023/06/19 11:07:22;;;;;;;13.23;7.22;;;;;;;24.68;65.84;99510.59;5040641;28;20021;-71
2023/06/19 11:09:47;;;;;;;11.98;6.88;;;;;;;24.77;65.89;99508.09;5040342;28;20422;-71
2023/06/19 11:12:19;;;;;;;11.27;7.07;;;;;;;24.87;65.36;99507.41;5040280;28;20087;-71
2023/06/19 11:14:44;;;;;;;13.05;7.07;;;;;;;24.94;65.04;99500.56;5040403;28;20029;-71
2023/06/19 11:17:10;;;;;;;10.97;6.80;;;;;;;25.00;64.89;99488.47;5039600;28;20191;-71
2023/06/19 11:19:37;;;;;;;12.00;7.20;;;;;;;24.96;64.49;99493.22;5040145;28;20482;-71
2023/06/19 11:22:03;;;;;;;14.07;6.93;;;;;;;24.97;64.26;99497.66;5040256;28;20132;-71